sensor_id;sensor_type;location;lat;lon;timestamp;pressure;altitude;pressure_sealevel;temperature;humidity
6194;BME280;3130;41.564;23.280;2023-03-13T00:01:46;99092.47;;;2.61;71.55
6194;BME280;3130;41.564;23.280;2023-03-13T00:04:13;99181.25;;;3.17;72.01
6194;BME280;3130;41.564;23.280;2023-03-13T00:06:40;99178.03;;;3.12;71.41
6194;BME280;3130;41.564;23.280;2023-03-13T00:09:10;99155.91;;;2.87;72.51
6194;BME280;3130;41.564;23.280;2023-03-13T00:11:38;99189.56;;;2.90;73.10
6194;BME280;3130;41.564;23.280;2023-03-13T00:14:05;99187.34;;;2.78;72.78
6194;BME280;3130;41.564;23.280;2023-03-13T00:16:33;99151.59;;;2.57;73.09
6194;BME280;3130;41.564;23.280;2023-03-13T00:19:02;99183.19;;;2.76;73.81
6194;BME280;3130;41.564;23.280;2023-03-13T00:21:30;99188.50;;;2.65;73.58
6194;BME280;3130;41.564;23.280;2023-03-13T00:23:58;99171.41;;;2.40;74.60
6194;BME280;3130;41.564;23.280;2023-03-13T00:26:27;99183.97;;;2.44;75.24
6194;BME280;3130;41.564;23.280;2023-03-13T00:28:55;99191.59;;;2.43;74.68
6194;BME280;3130;41.564;23.280;2023-03-13T00:31:23;99195.22;;;2.31;76.17
6194;BME280;3130;41.564;23.280;2023-03-13T00:33:52;99201.19;;;2.29;76.58
6194;BME280;3130;41.564;23.280;2023-03-13T00:36:21;99200.97;;;2.38;75.94
6194;BME280;3130;41.564;23.280;2023-03-13T00:38:50;99196.91;;;2.31;76.02
6194;BME280;3130;41.564;23.280;2023-03-13T00:41:19;99198.56;;;2.33;75.54
6194;BME280;3130;41.564;23.280;2023-03-13T00:43:49;99198.44;;;2.38;75.69
6194;BME280;3130;41.564;23.280;2023-03-13T00:46:18;99199.19;;;2.43;75.40
6194;BME280;3130;41.564;23.280;2023-03-13T00:48:45;99188.03;;;2.50;74.87
6194;BME280;3130;41.564;23.280;2023-03-13T00:51:14;99193.00;;;2.54;74.51
6194;BME280;3130;41.564;23.280;2023-03-13T00:53:41;99184.69;;;2.49;74.99
6194;BME280;3130;41.564;23.280;2023-03-13T00:56:11;99188.22;;;2.42;75.39
6194;BME280;3130;41.564;23.280;2023-03-13T00:58:39;99167.53;;;2.27;75.85
6194;BME280;3130;41.564;23.280;2023-03-13T01:01:09;99192.34;;;2.46;76.10
6194;BME280;3130;41.564;23.280;2023-03-13T01:03:38;99152.59;;;2.16;75.42
6194;BME280;3130;41.564;23.280;2023-03-13T01:06:07;99193.34;;;2.39;75.89
6194;BME280;3130;41.564;23.280;2023-03-13T01:08:34;99194.25;;;2.37;76.13
6194;BME280;3130;41.564;23.280;2023-03-13T01:11:04;99176.16;;;2.17;75.96
6194;BME280;3130;41.564;23.280;2023-03-13T01:13:31;99190.31;;;2.25;76.22
6194;BME280;3130;41.564;23.280;2023-03-13T01:16:01;99099.69;;;1.71;75.75
6194;BME280;3130;41.564;23.280;2023-03-13T01:18:29;99155.31;;;2.07;76.91
6194;BME280;3130;41.564;23.280;2023-03-13T01:20:57;99118.06;;;1.78;76.20
6194;BME280;3130;41.564;23.280;2023-03-13T01:23:25;99076.72;;;1.44;76.37
6194;BME280;3130;41.564;23.280;2023-03-13T01:25:53;99169.03;;;1.96;76.90
6194;BME280;3130;41.564;23.280;2023-03-13T01:28:20;99170.22;;;1.82;77.49
6194;BME280;3130;41.564;23.280;2023-03-13T01:30:47;99206.22;;;1.93;77.14
6194;BME280;3130;41.564;23.280;2023-03-13T01:33:15;99193.47;;;1.97;77.28
6194;BME280;3130;41.564;23.280;2023-03-13T01:35:43;99199.28;;;2.02;77.58
6194;BME280;3130;41.564;23.280;2023-03-13T01:38:11;99201.19;;;1.91;77.40
6194;BME280;3130;41.564;23.280;2023-03-13T01:40:39;99204.38;;;2.00;77.36
6194;BME280;3130;41.564;23.280;2023-03-13T01:43:17;99192.66;;;1.95;77.23
6194;BME280;3130;41.564;23.280;2023-03-13T01:46:00;99206.97;;;1.98;77.18
6194;BME280;3130;41.564;23.280;2023-03-13T01:48:35;99180.66;;;1.67;78.01
6194;BME280;3130;41.564;23.280;2023-03-13T01:51:08;99211.44;;;1.85;77.40
6194;BME280;3130;41.564;23.280;2023-03-13T01:53:38;99211.53;;;1.79;78.62
6194;BME280;3130;41.564;23.280;2023-03-13T01:56:12;99207.41;;;1.77;78.09
6194;BME280;3130;41.564;23.280;2023-03-13T01:58:41;99210.09;;;1.68;78.61
6194;BME280;3130;41.564;23.280;2023-03-13T02:01:08;99205.94;;;1.67;78.43
6194;BME280;3130;41.564;23.280;2023-03-13T02:03:36;99172.66;;;1.45;79.22
6194;BME280;3130;41.564;23.280;2023-03-13T02:06:06;99192.66;;;1.57;78.81
6194;BME280;3130;41.564;23.280;2023-03-13T02:08:37;99210.94;;;1.68;78.95
6194;BME280;3130;41.564;23.280;2023-03-13T02:11:23;99161.09;;;1.34;79.24
6194;BME280;3130;41.564;23.280;2023-03-13T02:13:53;99207.75;;;1.59;79.31
6194;BME280;3130;41.564;23.280;2023-03-13T02:16:22;99217.88;;;1.59;79.15
6194;BME280;3130;41.564;23.280;2023-03-13T02:18:49;99225.41;;;1.62;79.38
6194;BME280;3130;41.564;23.280;2023-03-13T02:21:26;99044.94;;;0.51;79.14
6194;BME280;3130;41.564;23.280;2023-03-13T02:24:02;99223.63;;;1.65;78.71
6194;BME280;3130;41.564;23.280;2023-03-13T02:26:34;99230.19;;;1.75;78.42
6194;BME280;3130;41.564;23.280;2023-03-13T02:29:01;99225.13;;;1.75;78.22
6194;BME280;3130;41.564;23.280;2023-03-13T02:31:28;99236.97;;;1.72;79.07
6194;BME280;3130;41.564;23.280;2023-03-13T02:33:58;99236.97;;;1.73;78.83
6194;BME280;3130;41.564;23.280;2023-03-13T02:36:27;99238.75;;;1.68;79.33
6194;BME280;3130;41.564;23.280;2023-03-13T02:38:58;99207.91;;;1.51;79.15
6194;BME280;3130;41.564;23.280;2023-03-13T02:41:28;99251.34;;;1.70;79.13
6194;BME280;3130;41.564;23.280;2023-03-13T02:43:56;99265.59;;;1.74;78.95
6194;BME280;3130;41.564;23.280;2023-03-13T02:46:23;99258.59;;;1.85;79.06
6194;BME280;3130;41.564;23.280;2023-03-13T02:48:52;99261.03;;;1.91;78.43
6194;BME280;3130;41.564;23.280;2023-03-13T02:51:25;99264.41;;;1.91;77.92
6194;BME280;3130;41.564;23.280;2023-03-13T02:53:57;99248.81;;;1.70;78.80
6194;BME280;3130;41.564;23.280;2023-03-13T02:56:27;99276.41;;;1.80;78.14
6194;BME280;3130;41.564;23.280;2023-03-13T02:58:57;99286.41;;;1.85;78.50
6194;BME280;3130;41.564;23.280;2023-03-13T03:01:25;99282.31;;;1.79;78.66
6194;BME280;3130;41.564;23.280;2023-03-13T03:03:52;99288.47;;;1.66;79.16
6194;BME280;3130;41.564;23.280;2023-03-13T03:06:19;99292.81;;;1.60;79.33
6194;BME280;3130;41.564;23.280;2023-03-13T03:08:46;99298.72;;;1.59;78.87
6194;BME280;3130;41.564;23.280;2023-03-13T03:11:13;99210.38;;;1.10;78.47
6194;BME280;3130;41.564;23.280;2023-03-13T03:13:40;99232.94;;;1.18;78.61
6194;BME280;3130;41.564;23.280;2023-03-13T03:16:10;99300.66;;;1.45;78.99
6194;BME280;3130;41.564;23.280;2023-03-13T03:18:37;99315.81;;;1.45;79.52
6194;BME280;3130;41.564;23.280;2023-03-13T03:21:05;99312.31;;;1.52;79.88
6194;BME280;3130;41.564;23.280;2023-03-13T03:23:32;99311.47;;;1.53;79.58
6194;BME280;3130;41.564;23.280;2023-03-13T03:26:00;99290.75;;;1.34;80.04
6194;BME280;3130;41.564;23.280;2023-03-13T03:28:27;99225.22;;;0.79;80.16
6194;BME280;3130;41.564;23.280;2023-03-13T03:30:54;99243.63;;;0.87;80.66
6194;BME280;3130;41.564;23.280;2023-03-13T03:33:23;99171.16;;;0.43;80.33
6194;BME280;3130;41.564;23.280;2023-03-13T03:35:50;99265.91;;;1.10;80.34
6194;BME280;3130;41.564;23.280;2023-03-13T03:38:17;99337.84;;;1.38;80.13
6194;BME280;3130;41.564;23.280;2023-03-13T03:40:44;99238.88;;;0.67;80.57
6194;BME280;3130;41.564;23.280;2023-03-13T03:43:11;99336.22;;;1.33;80.28
6194;BME280;3130;41.564;23.280;2023-03-13T03:45:38;99310.41;;;1.17;80.81
6194;BME280;3130;41.564;23.280;2023-03-13T03:48:05;99351.25;;;1.42;80.81
6194;BME280;3130;41.564;23.280;2023-03-13T03:50:34;99351.19;;;1.45;80.53
6194;BME280;3130;41.564;23.280;2023-03-13T03:53:01;99353.69;;;1.46;80.50
6194;BME280;3130;41.564;23.280;2023-03-13T03:55:28;99359.59;;;1.45;80.23
6194;BME280;3130;41.564;23.280;2023-03-13T03:57:55;99275.69;;;0.79;80.63
6194;BME280;3130;41.564;23.280;2023-03-13T04:00:22;99372.34;;;1.39;80.13
6194;BME280;3130;41.564;23.280;2023-03-13T04:02:49;99364.16;;;1.24;80.46
6194;BME280;3130;41.564;23.280;2023-03-13T04:05:16;99372.47;;;1.30;81.25
6194;BME280;3130;41.564;23.280;2023-03-13T04:07:45;99378.94;;;1.46;80.64
6194;BME280;3130;41.564;23.280;2023-03-13T04:10:12;99387.25;;;1.54;80.35
6194;BME280;3130;41.564;23.280;2023-03-13T04:12:40;99382.09;;;1.59;80.30
6194;BME280;3130;41.564;23.280;2023-03-13T04:15:07;99381.25;;;1.58;80.40
6194;BME280;3130;41.564;23.280;2023-03-13T04:17:34;99382.06;;;1.62;79.76
6194;BME280;3130;41.564;23.280;2023-03-13T04:20:02;99356.97;;;1.51;80.37
6194;BME280;3130;41.564;23.280;2023-03-13T04:22:29;99343.50;;;1.51;79.63
6194;BME280;3130;41.564;23.280;2023-03-13T04:24:58;99385.31;;;1.68;78.69
6194;BME280;3130;41.564;23.280;2023-03-13T04:27:25;99391.34;;;1.60;78.69
6194;BME280;3130;41.564;23.280;2023-03-13T04:29:52;99389.06;;;1.46;79.90
6194;BME280;3130;41.564;23.280;2023-03-13T04:32:19;99399.31;;;1.37;80.03
6194;BME280;3130;41.564;23.280;2023-03-13T04:34:47;99404.44;;;1.31;80.75
6194;BME280;3130;41.564;23.280;2023-03-13T04:37:14;99385.19;;;1.26;80.28
6194;BME280;3130;41.564;23.280;2023-03-13T04:39:41;99409.44;;;1.36;80.06
6194;BME280;3130;41.564;23.280;2023-03-13T04:42:10;99411.00;;;1.43;80.62
6194;BME280;3130;41.564;23.280;2023-03-13T04:44:37;99405.88;;;1.49;79.88
6194;BME280;3130;41.564;23.280;2023-03-13T04:47:04;99377.66;;;1.23;79.46
6194;BME280;3130;41.564;23.280;2023-03-13T04:49:32;99263.56;;;0.47;79.85
6194;BME280;3130;41.564;23.280;2023-03-13T04:51:59;99437.22;;;1.36;79.93
6194;BME280;3130;41.564;23.280;2023-03-13T04:54:26;99435.72;;;1.23;79.63
6194;BME280;3130;41.564;23.280;2023-03-13T04:56:53;99414.13;;;1.04;80.89
6194;BME280;3130;41.564;23.280;2023-03-13T04:59:22;99455.91;;;1.24;81.21
6194;BME280;3130;41.564;23.280;2023-03-13T05:01:49;99422.38;;;1.15;80.74
6194;BME280;3130;41.564;23.280;2023-03-13T05:04:16;99459.00;;;1.41;79.99
6194;BME280;3130;41.564;23.280;2023-03-13T05:06:43;99429.03;;;1.20;79.88
6194;BME280;3130;41.564;23.280;2023-03-13T05:09:10;99457.53;;;1.30;80.59
6194;BME280;3130;41.564;23.280;2023-03-13T05:11:37;99440.91;;;1.15;80.79
6194;BME280;3130;41.564;23.280;2023-03-13T05:14:12;99469.31;;;1.29;80.97
6194;BME280;3130;41.564;23.280;2023-03-13T05:16:47;99478.56;;;1.30;80.66
6194;BME280;3130;41.564;23.280;2023-03-13T05:19:14;99457.81;;;1.07;81.23
6194;BME280;3130;41.564;23.280;2023-03-13T05:21:42;99394.66;;;0.52;81.42
6194;BME280;3130;41.564;23.280;2023-03-13T05:24:09;99447.38;;;0.71;81.88
6194;BME280;3130;41.564;23.280;2023-03-13T05:26:36;99488.22;;;1.00;82.69
6194;BME280;3130;41.564;23.280;2023-03-13T05:29:03;99479.03;;;0.96;82.44
6194;BME280;3130;41.564;23.280;2023-03-13T05:31:30;99495.75;;;1.03;82.19
6194;BME280;3130;41.564;23.280;2023-03-13T05:33:58;99418.09;;;0.60;82.89
6194;BME280;3130;41.564;23.280;2023-03-13T05:36:25;99482.16;;;1.14;82.58
6194;BME280;3130;41.564;23.280;2023-03-13T05:38:52;99406.09;;;0.78;81.76
6194;BME280;3130;41.564;23.280;2023-03-13T05:41:20;99424.47;;;0.88;81.51
6194;BME280;3130;41.564;23.280;2023-03-13T05:43:47;99495.34;;;1.33;82.03
6194;BME280;3130;41.564;23.280;2023-03-13T05:46:14;99499.38;;;1.44;81.50
6194;BME280;3130;41.564;23.280;2023-03-13T05:48:41;99360.69;;;0.77;80.53
6194;BME280;3130;41.564;23.280;2023-03-13T05:51:11;99503.28;;;1.66;80.29
6194;BME280;3130;41.564;23.280;2023-03-13T05:53:38;99420.63;;;1.20;80.16
6194;BME280;3130;41.564;23.280;2023-03-13T05:56:06;99506.34;;;1.86;79.38
6194;BME280;3130;41.564;23.280;2023-03-13T05:58:33;99512.00;;;2.01;78.46
6194;BME280;3130;41.564;23.280;2023-03-13T06:01:05;99384.06;;;1.42;77.37
6194;BME280;3130;41.564;23.280;2023-03-13T06:03:32;99518.06;;;2.38;76.72
6194;BME280;3130;41.564;23.280;2023-03-13T06:05:59;99357.50;;;1.68;74.47
6194;BME280;3130;41.564;23.280;2023-03-13T06:08:28;99517.00;;;2.94;72.70
6194;BME280;3130;41.564;23.280;2023-03-13T06:10:58;99510.47;;;3.23;70.25
6194;BME280;3130;41.564;23.280;2023-03-13T06:13:26;99506.63;;;3.43;68.33
6194;BME280;3130;41.564;23.280;2023-03-13T06:15:53;99512.00;;;3.68;67.24
6194;BME280;3130;41.564;23.280;2023-03-13T06:18:21;99512.28;;;3.91;66.06
6194;BME280;3130;41.564;23.280;2023-03-13T06:20:49;99513.53;;;4.09;63.77
6194;BME280;3130;41.564;23.280;2023-03-13T06:23:16;99523.41;;;4.20;62.48
6194;BME280;3130;41.564;23.280;2023-03-13T06:25:47;99531.72;;;4.25;61.60
6194;BME280;3130;41.564;23.280;2023-03-13T06:28:14;99528.16;;;4.32;61.02
6194;BME280;3130;41.564;23.280;2023-03-13T06:30:41;99502.13;;;4.24;60.83
6194;BME280;3130;41.564;23.280;2023-03-13T06:33:09;99534.72;;;4.40;60.79
6194;BME280;3130;41.564;23.280;2023-03-13T06:35:39;99532.78;;;4.50;59.53
6194;BME280;3130;41.564;23.280;2023-03-13T06:38:07;99536.06;;;4.53;59.16
6194;BME280;3130;41.564;23.280;2023-03-13T06:40:35;99506.00;;;4.38;58.69
6194;BME280;3130;41.564;23.280;2023-03-13T06:43:03;99540.59;;;4.74;59.00
6194;BME280;3130;41.564;23.280;2023-03-13T06:45:30;99539.63;;;4.78;57.52
6194;BME280;3130;41.564;23.280;2023-03-13T06:47:57;99543.66;;;4.85;57.65
6194;BME280;3130;41.564;23.280;2023-03-13T06:50:24;99529.09;;;4.92;57.01
6194;BME280;3130;41.564;23.280;2023-03-13T06:52:51;99538.63;;;5.14;55.96
6194;BME280;3130;41.564;23.280;2023-03-13T06:55:18;99526.41;;;5.26;55.94
6194;BME280;3130;41.564;23.280;2023-03-13T06:57:49;99547.44;;;5.59;53.35
6194;BME280;3130;41.564;23.280;2023-03-13T07:00:19;99516.00;;;5.61;53.14
6194;BME280;3130;41.564;23.280;2023-03-13T07:02:46;99540.66;;;6.12;52.36
6194;BME280;3130;41.564;23.280;2023-03-13T07:05:13;99544.81;;;6.41;50.64
6194;BME280;3130;41.564;23.280;2023-03-13T07:07:41;99537.50;;;7.03;50.10
6194;BME280;3130;41.564;23.280;2023-03-13T07:10:09;99532.72;;;8.26;47.26
6194;BME280;3130;41.564;23.280;2023-03-13T07:12:39;99537.03;;;9.59;42.75
6194;BME280;3130;41.564;23.280;2023-03-13T07:15:07;99543.28;;;10.92;39.49
6194;BME280;3130;41.564;23.280;2023-03-13T07:17:36;99455.66;;;11.61;36.64
6194;BME280;3130;41.564;23.280;2023-03-13T07:20:04;99526.34;;;12.85;35.30
6194;BME280;3130;41.564;23.280;2023-03-13T07:22:35;99522.56;;;13.87;33.71
6194;BME280;3130;41.564;23.280;2023-03-13T07:25:02;99528.38;;;14.80;32.00
6194;BME280;3130;41.564;23.280;2023-03-13T07:27:29;99483.09;;;15.12;30.02
6194;BME280;3130;41.564;23.280;2023-03-13T07:29:56;99527.59;;;15.89;29.25
6194;BME280;3130;41.564;23.280;2023-03-13T07:32:24;99500.63;;;16.38;28.37
6194;BME280;3130;41.564;23.280;2023-03-13T07:34:52;99536.78;;;16.85;27.94
6194;BME280;3130;41.564;23.280;2023-03-13T07:37:20;99518.66;;;17.39;27.12
6194;BME280;3130;41.564;23.280;2023-03-13T07:39:47;99529.03;;;18.04;26.41
6194;BME280;3130;41.564;23.280;2023-03-13T07:42:14;99526.84;;;18.51;25.17
6194;BME280;3130;41.564;23.280;2023-03-13T07:44:43;99520.69;;;18.93;24.61
6194;BME280;3130;41.564;23.280;2023-03-13T07:47:10;99529.34;;;19.62;23.45
6194;BME280;3130;41.564;23.280;2023-03-13T07:49:37;99422.91;;;19.59;23.12
6194;BME280;3130;41.564;23.280;2023-03-13T07:52:09;99469.22;;;20.50;22.32
6194;BME280;3130;41.564;23.280;2023-03-13T07:54:37;99510.16;;;21.41;21.78
6194;BME280;3130;41.564;23.280;2023-03-13T07:57:04;99410.41;;;21.38;21.36
6194;BME280;3130;41.564;23.280;2023-03-13T07:59:31;99459.88;;;22.19;20.55
6194;BME280;3130;41.564;23.280;2023-03-13T08:01:58;99471.34;;;22.26;20.52
6194;BME280;3130;41.564;23.280;2023-03-13T08:04:31;99508.31;;;22.31;20.31
6194;BME280;3130;41.564;23.280;2023-03-13T08:06:58;99490.59;;;22.59;20.36
6194;BME280;3130;41.564;23.280;2023-03-13T08:09:27;99497.47;;;22.86;19.95
6194;BME280;3130;41.564;23.280;2023-03-13T08:11:55;99499.34;;;22.50;19.78
6194;BME280;3130;41.564;23.280;2023-03-13T08:14:22;99482.59;;;22.61;20.01
6194;BME280;3130;41.564;23.280;2023-03-13T08:16:49;99453.22;;;22.24;19.97
6194;BME280;3130;41.564;23.280;2023-03-13T08:19:17;99319.97;;;20.58;20.68
6194;BME280;3130;41.564;23.280;2023-03-13T08:21:44;99406.69;;;20.96;21.01
6194;BME280;3130;41.564;23.280;2023-03-13T08:24:11;99408.19;;;20.99;21.42
6194;BME280;3130;41.564;23.280;2023-03-13T08:26:40;99401.16;;;20.17;21.44
6194;BME280;3130;41.564;23.280;2023-03-13T08:29:09;99417.47;;;19.72;22.29
6194;BME280;3130;41.564;23.280;2023-03-13T08:31:38;99384.88;;;18.20;23.29
6194;BME280;3130;41.564;23.280;2023-03-13T08:34:07;99459.28;;;16.82;25.65
6194;BME280;3130;41.564;23.280;2023-03-13T08:36:36;99434.88;;;16.51;26.19
6194;BME280;3130;41.564;23.280;2023-03-13T08:39:05;99424.81;;;16.25;26.77
6194;BME280;3130;41.564;23.280;2023-03-13T08:41:34;99483.88;;;16.65;26.53
6194;BME280;3130;41.564;23.280;2023-03-13T08:44:03;99482.69;;;16.24;27.28
6194;BME280;3130;41.564;23.280;2023-03-13T08:46:32;99448.06;;;15.80;27.81
6194;BME280;3130;41.564;23.280;2023-03-13T08:49:01;99477.22;;;15.58;27.51
6194;BME280;3130;41.564;23.280;2023-03-13T08:51:29;99462.25;;;14.90;28.45
6194;BME280;3130;41.564;23.280;2023-03-13T08:53:56;99332.72;;;13.34;29.90
6194;BME280;3130;41.564;23.280;2023-03-13T08:56:25;99296.22;;;13.02;30.45
6194;BME280;3130;41.564;23.280;2023-03-13T08:58:54;99470.75;;;13.77;30.54
6194;BME280;3130;41.564;23.280;2023-03-13T09:01:24;99464.56;;;13.67;30.31
6194;BME280;3130;41.564;23.280;2023-03-13T09:03:52;99381.44;;;13.25;30.85
6194;BME280;3130;41.564;23.280;2023-03-13T09:06:19;99384.69;;;13.14;30.37
6194;BME280;3130;41.564;23.280;2023-03-13T09:08:46;99453.56;;;13.51;30.43
6194;BME280;3130;41.564;23.280;2023-03-13T09:11:16;99331.25;;;12.50;31.21
6194;BME280;3130;41.564;23.280;2023-03-13T09:13:45;99463.28;;;13.20;30.00
6194;BME280;3130;41.564;23.280;2023-03-13T09:16:14;99456.59;;;13.04;30.91
6194;BME280;3130;41.564;23.280;2023-03-13T09:18:43;99450.44;;;13.06;31.00
6194;BME280;3130;41.564;23.280;2023-03-13T09:21:13;99454.78;;;12.92;31.06
6194;BME280;3130;41.564;23.280;2023-03-13T09:23:41;99425.88;;;12.73;31.12
6194;BME280;3130;41.564;23.280;2023-03-13T09:26:08;99432.69;;;12.74;31.19
6194;BME280;3130;41.564;23.280;2023-03-13T09:28:35;99447.94;;;12.77;30.98
6194;BME280;3130;41.564;23.280;2023-03-13T09:31:06;99431.84;;;12.31;32.01
6194;BME280;3130;41.564;23.280;2023-03-13T09:33:34;99394.47;;;11.22;32.99
6194;BME280;3130;41.564;23.280;2023-03-13T09:36:03;99437.94;;;11.10;33.26
6194;BME280;3130;41.564;23.280;2023-03-13T09:38:30;99421.47;;;10.66;35.13
6194;BME280;3130;41.564;23.280;2023-03-13T09:41:03;99277.28;;;9.49;35.17
6194;BME280;3130;41.564;23.280;2023-03-13T09:43:40;99428.56;;;10.78;35.03
6194;BME280;3130;41.564;23.280;2023-03-13T09:46:13;99426.19;;;11.06;34.20
6194;BME280;3130;41.564;23.280;2023-03-13T09:48:44;99419.03;;;11.42;34.56
6194;BME280;3130;41.564;23.280;2023-03-13T09:51:17;99401.81;;;11.59;33.61
6194;BME280;3130;41.564;23.280;2023-03-13T09:53:50;99419.72;;;11.90;32.89
6194;BME280;3130;41.564;23.280;2023-03-13T09:56:19;99307.25;;;11.36;32.79
6194;BME280;3130;41.564;23.280;2023-03-13T09:58:54;99348.81;;;11.58;32.92
6194;BME280;3130;41.564;23.280;2023-03-13T10:01:27;99406.53;;;11.67;33.09
6194;BME280;3130;41.564;23.280;2023-03-13T10:04:03;99325.41;;;11.18;33.27
6194;BME280;3130;41.564;23.280;2023-03-13T10:06:38;99350.19;;;11.03;33.63
6194;BME280;3130;41.564;23.280;2023-03-13T10:09:15;99360.06;;;11.40;33.48
6194;BME280;3130;41.564;23.280;2023-03-13T10:11:52;99398.88;;;11.81;33.37
6194;BME280;3130;41.564;23.280;2023-03-13T10:14:28;99393.88;;;12.07;33.29
6194;BME280;3130;41.564;23.280;2023-03-13T10:17:01;99396.00;;;12.28;33.11
6194;BME280;3130;41.564;23.280;2023-03-13T10:19:33;99380.13;;;12.36;32.64
6194;BME280;3130;41.564;23.280;2023-03-13T10:22:11;99225.13;;;11.64;32.63
6194;BME280;3130;41.564;23.280;2023-03-13T10:24:43;99354.94;;;12.55;31.88
6194;BME280;3130;41.564;23.280;2023-03-13T10:27:16;99319.97;;;12.52;31.81
6194;BME280;3130;41.564;23.280;2023-03-13T10:29:45;99214.88;;;12.06;31.81
6194;BME280;3130;41.564;23.280;2023-03-13T10:32:16;99308.34;;;12.73;31.42
6194;BME280;3130;41.564;23.280;2023-03-13T10:34:49;99205.84;;;12.27;30.26
6194;BME280;3130;41.564;23.280;2023-03-13T10:37:22;99207.94;;;12.34;31.05
6194;BME280;3130;41.564;23.280;2023-03-13T10:39:50;99245.47;;;12.77;31.37
6194;BME280;3130;41.564;23.280;2023-03-13T10:42:21;99318.28;;;13.32;30.36
6194;BME280;3130;41.564;23.280;2023-03-13T10:44:55;99325.78;;;13.61;30.61
6194;BME280;3130;41.564;23.280;2023-03-13T10:47:29;99277.13;;;13.57;30.59
6194;BME280;3130;41.564;23.280;2023-03-13T10:50:04;99333.88;;;14.07;29.91
6194;BME280;3130;41.564;23.280;2023-03-13T10:52:35;99333.66;;;13.97;29.90
6194;BME280;3130;41.564;23.280;2023-03-13T10:55:10;99323.47;;;13.96;30.29
6194;BME280;3130;41.564;23.280;2023-03-13T10:57:38;99294.03;;;13.86;29.86
6194;BME280;3130;41.564;23.280;2023-03-13T11:00:27;99202.81;;;13.26;29.57
6194;BME280;3130;41.564;23.280;2023-03-13T11:02:55;99155.78;;;12.98;29.82
6194;BME280;3130;41.564;23.280;2023-03-13T11:05:31;99238.16;;;13.61;29.98
6194;BME280;3130;41.564;23.280;2023-03-13T11:08:18;99292.19;;;14.00;29.64
6194;BME280;3130;41.564;23.280;2023-03-13T11:10:55;99300.22;;;14.08;29.27
6194;BME280;3130;41.564;23.280;2023-03-13T11:13:33;99181.75;;;13.07;29.48
6194;BME280;3130;41.564;23.280;2023-03-13T11:16:10;99143.84;;;13.09;29.45
6194;BME280;3130;41.564;23.280;2023-03-13T11:18:44;99171.16;;;13.49;29.19
6194;BME280;3130;41.564;23.280;2023-03-13T11:21:22;99263.53;;;14.17;28.87
6194;BME280;3130;41.564;23.280;2023-03-13T11:23:57;99173.66;;;13.50;28.84
6194;BME280;3130;41.564;23.280;2023-03-13T11:26:34;99164.97;;;13.64;29.40
6194;BME280;3130;41.564;23.280;2023-03-13T11:29:08;99178.81;;;13.99;29.02
6194;BME280;3130;41.564;23.280;2023-03-13T11:31:41;99255.16;;;14.62;29.10
6194;BME280;3130;41.564;23.280;2023-03-13T11:34:17;99118.97;;;14.06;29.06
6194;BME280;3130;41.564;23.280;2023-03-13T11:36:52;99243.59;;;14.31;29.22
6194;BME280;3130;41.564;23.280;2023-03-13T11:39:39;99165.91;;;14.23;29.12
6194;BME280;3130;41.564;23.280;2023-03-13T11:42:25;99239.16;;;14.93;29.06
6194;BME280;3130;41.564;23.280;2023-03-13T11:45:02;99241.94;;;15.13;28.50
6194;BME280;3130;41.564;23.280;2023-03-13T11:47:43;99099.25;;;14.41;28.58
6194;BME280;3130;41.564;23.280;2023-03-13T11:50:25;99094.41;;;14.60;27.89
6194;BME280;3130;41.564;23.280;2023-03-13T11:53:17;99200.19;;;15.30;27.32
6194;BME280;3130;41.564;23.280;2023-03-13T11:55:58;99191.13;;;15.24;27.35
6194;BME280;3130;41.564;23.280;2023-03-13T11:58:44;99210.53;;;15.41;27.51
6194;BME280;3130;41.564;23.280;2023-03-13T12:01:23;99162.78;;;15.23;27.06
6194;BME280;3130;41.564;23.280;2023-03-13T12:03:57;99210.25;;;15.67;26.75
6194;BME280;3130;41.564;23.280;2023-03-13T12:06:32;99106.06;;;15.21;26.47
6194;BME280;3130;41.564;23.280;2023-03-13T12:09:05;99175.81;;;16.00;26.35
6194;BME280;3130;41.564;23.280;2023-03-13T12:11:45;99127.03;;;15.73;26.04
6194;BME280;3130;41.564;23.280;2023-03-13T12:14:20;99186.47;;;16.39;26.27
6194;BME280;3130;41.564;23.280;2023-03-13T12:16:51;99180.53;;;16.59;24.81
6194;BME280;3130;41.564;23.280;2023-03-13T12:19:25;99145.75;;;16.41;24.52
6194;BME280;3130;41.564;23.280;2023-03-13T12:21:56;99071.47;;;15.68;25.32
6194;BME280;3130;41.564;23.280;2023-03-13T12:24:32;99134.81;;;15.62;25.91
6194;BME280;3130;41.564;23.280;2023-03-13T12:27:09;99149.84;;;15.79;25.85
6194;BME280;3130;41.564;23.280;2023-03-13T12:29:44;99109.53;;;15.66;25.96
6194;BME280;3130;41.564;23.280;2023-03-13T12:32:18;99164.41;;;16.13;25.95
6194;BME280;3130;41.564;23.280;2023-03-13T12:34:55;99150.00;;;16.20;25.52
6194;BME280;3130;41.564;23.280;2023-03-13T12:37:30;99156.25;;;16.39;25.78
6194;BME280;3130;41.564;23.280;2023-03-13T12:40:03;99139.16;;;16.48;25.47
6194;BME280;3130;41.564;23.280;2023-03-13T12:42:44;99141.78;;;16.68;25.25
6194;BME280;3130;41.564;23.280;2023-03-13T12:45:15;99103.16;;;16.45;26.11
6194;BME280;3130;41.564;23.280;2023-03-13T12:51:13;99133.78;;;16.71;25.92
6194;BME280;3130;41.564;23.280;2023-03-13T12:57:05;99119.03;;;16.51;25.89
6194;BME280;3130;41.564;23.280;2023-03-13T12:59:38;99065.66;;;16.28;25.79
6194;BME280;3130;41.564;23.280;2023-03-13T13:02:14;98996.75;;;15.96;25.06
6194;BME280;3130;41.564;23.280;2023-03-13T13:04:44;99102.63;;;16.82;25.36
6194;BME280;3130;41.564;23.280;2023-03-13T13:07:23;99074.50;;;16.26;25.11
6194;BME280;3130;41.564;23.280;2023-03-13T13:10:13;99051.22;;;15.84;25.67
6194;BME280;3130;41.564;23.280;2023-03-13T13:12:43;98976.84;;;15.65;25.88
6194;BME280;3130;41.564;23.280;2023-03-13T13:15:19;99109.31;;;16.64;25.88
6194;BME280;3130;41.564;23.280;2023-03-13T13:18:13;99071.16;;;16.66;25.70
6194;BME280;3130;41.564;23.280;2023-03-13T13:20:48;99021.19;;;16.34;25.71
6194;BME280;3130;41.564;23.280;2023-03-13T13:23:33;98968.53;;;16.24;25.95
6194;BME280;3130;41.564;23.280;2023-03-13T13:32:45;98973.25;;;16.81;25.71
6194;BME280;3130;41.564;23.280;2023-03-13T13:35:36;99081.78;;;17.54;25.89
6194;BME280;3130;41.564;23.280;2023-03-13T13:38:33;99091.84;;;17.78;25.90
6194;BME280;3130;41.564;23.280;2023-03-13T13:41:22;99095.19;;;17.99;25.82
6194;BME280;3130;41.564;23.280;2023-03-13T13:44:22;99105.19;;;18.22;25.16
6194;BME280;3130;41.564;23.280;2023-03-13T13:46:49;99094.56;;;18.34;25.26
6194;BME280;3130;41.564;23.280;2023-03-13T13:49:19;99038.19;;;17.88;25.34